sensor_id;sensor_type;location;lat;lon;timestamp;pressure;altitude;pressure_sealevel;temperature;humidity
51083;BME280;37131;42.694;23.350;2022-12-18T00:01:52;96270.97;;;5.60;100.00
51083;BME280;37131;42.694;23.350;2022-12-18T00:04:22;96276.97;;;5.53;100.00
51083;BME280;37131;42.694;23.350;2022-12-18T00:06:47;96278.47;;;5.39;100.00
51083;BME280;37131;42.694;23.350;2022-12-18T00:09:14;96277.38;;;5.33;100.00
51083;BME280;37131;42.694;23.350;2022-12-18T00:11:39;96281.25;;;5.29;100.00
51083;BME280;37131;42.694;23.350;2022-12-18T00:14:04;96273.66;;;5.19;100.00
51083;BME280;37131;42.694;23.350;2022-12-18T00:16:30;96284.16;;;5.18;100.00
51083;BME280;37131;42.694;23.350;2022-12-18T00:18:58;96282.06;;;5.13;100.00
51083;BME280;37131;42.694;23.350;2022-12-18T00:21:23;96284.50;;;5.15;100.00
51083;BME280;37131;42.694;23.350;2022-12-18T00:23:49;96296.25;;;5.25;100.00
51083;BME280;37131;42.694;23.350;2022-12-18T00:26:18;96290.78;;;5.12;100.00
51083;BME280;37131;42.694;23.350;2022-12-18T00:28:44;96300.50;;;5.18;100.00
51083;BME280;37131;42.694;23.350;2022-12-18T00:31:11;96293.88;;;5.07;100.00
51083;BME280;37131;42.694;23.350;2022-12-18T00:33:36;96309.25;;;5.01;100.00
51083;BME280;37131;42.694;23.350;2022-12-18T00:36:06;96312.31;;;4.96;100.00
51083;BME280;37131;42.694;23.350;2022-12-18T00:38:32;96314.41;;;4.92;100.00
51083;BME280;37131;42.694;23.350;2022-12-18T00:40:57;96311.81;;;4.92;100.00
51083;BME280;37131;42.694;23.350;2022-12-18T00:43:23;96309.41;;;4.83;100.00
51083;BME280;37131;42.694;23.350;2022-12-18T00:45:48;96314.41;;;4.92;100.00
51083;BME280;37131;42.694;23.350;2022-12-18T00:48:13;96316.50;;;4.89;100.00
51083;BME280;37131;42.694;23.350;2022-12-18T00:50:38;96318.09;;;4.90;100.00
51083;BME280;37131;42.694;23.350;2022-12-18T00:53:04;96324.56;;;4.94;100.00
51083;BME280;37131;42.694;23.350;2022-12-18T00:55:29;96332.31;;;4.94;100.00
51083;BME280;37131;42.694;23.350;2022-12-18T00:57:54;96325.22;;;4.80;100.00
51083;BME280;37131;42.694;23.350;2022-12-18T01:00:20;96329.09;;;4.76;100.00
51083;BME280;37131;42.694;23.350;2022-12-18T01:02:45;96334.25;;;4.67;100.00
51083;BME280;37131;42.694;23.350;2022-12-18T01:05:11;96337.66;;;4.76;100.00
51083;BME280;37131;42.694;23.350;2022-12-18T01:07:37;96337.31;;;4.63;100.00
51083;BME280;37131;42.694;23.350;2022-12-18T01:10:03;96333.59;;;4.57;100.00
51083;BME280;37131;42.694;23.350;2022-12-18T01:12:28;96344.69;;;4.41;100.00
51083;BME280;37131;42.694;23.350;2022-12-18T01:14:53;96343.75;;;4.50;100.00
51083;BME280;37131;42.694;23.350;2022-12-18T01:17:19;96350.50;;;4.35;100.00
51083;BME280;37131;42.694;23.350;2022-12-18T01:19:44;96350.50;;;4.35;100.00
51083;BME280;37131;42.694;23.350;2022-12-18T01:22:09;96354.50;;;4.29;100.00
51083;BME280;37131;42.694;23.350;2022-12-18T01:24:34;96355.19;;;4.31;100.00
51083;BME280;37131;42.694;23.350;2022-12-18T01:27:00;96359.66;;;4.21;100.00
51083;BME280;37131;42.694;23.350;2022-12-18T01:29:25;96358.53;;;4.24;100.00
51083;BME280;37131;42.694;23.350;2022-12-18T01:31:50;96350.63;;;4.25;100.00
51083;BME280;37131;42.694;23.350;2022-12-18T01:34:16;96362.88;;;4.23;100.00
51083;BME280;37131;42.694;23.350;2022-12-18T01:36:41;96357.25;;;4.19;100.00
51083;BME280;37131;42.694;23.350;2022-12-18T01:39:11;96369.84;;;4.31;100.00
51083;BME280;37131;42.694;23.350;2022-12-18T01:41:36;96374.47;;;4.19;100.00
51083;BME280;37131;42.694;23.350;2022-12-18T01:47:05;96379.47;;;4.20;100.00
51083;BME280;37131;42.694;23.350;2022-12-18T01:49:30;96369.78;;;4.06;100.00
51083;BME280;37131;42.694;23.350;2022-12-18T01:51:55;96371.19;;;4.00;100.00
51083;BME280;37131;42.694;23.350;2022-12-18T01:54:20;96378.41;;;3.97;100.00
51083;BME280;37131;42.694;23.350;2022-12-18T01:56:46;96379.25;;;3.97;100.00
51083;BME280;37131;42.694;23.350;2022-12-18T01:59:11;96380.16;;;3.88;100.00
51083;BME280;37131;42.694;23.350;2022-12-18T02:01:38;96373.72;;;3.84;100.00
51083;BME280;37131;42.694;23.350;2022-12-18T02:06:46;96385.94;;;3.82;100.00
51083;BME280;37131;42.694;23.350;2022-12-18T02:09:18;96385.59;;;3.77;100.00
51083;BME280;37131;42.694;23.350;2022-12-18T02:14:38;96392.03;;;3.81;100.00
51083;BME280;37131;42.694;23.350;2022-12-18T02:17:26;96401.41;;;3.82;100.00
51083;BME280;37131;42.694;23.350;2022-12-18T02:28:02;96411.19;;;3.70;100.00
51083;BME280;37131;42.694;23.350;2022-12-18T02:30:29;96405.06;;;3.71;100.00
51083;BME280;37131;42.694;23.350;2022-12-18T02:32:56;96408.50;;;3.80;100.00
51083;BME280;37131;42.694;23.350;2022-12-18T02:35:25;96410.31;;;3.88;100.00
51083;BME280;37131;42.694;23.350;2022-12-18T02:37:52;96409.22;;;3.90;100.00
51083;BME280;37131;42.694;23.350;2022-12-18T02:40:18;96411.47;;;3.93;100.00
51083;BME280;37131;42.694;23.350;2022-12-18T02:42:44;96418.31;;;3.76;100.00
51083;BME280;37131;42.694;23.350;2022-12-18T02:45:10;96419.75;;;3.71;100.00
51083;BME280;37131;42.694;23.350;2022-12-18T02:47:42;96430.34;;;3.67;100.00
51083;BME280;37131;42.694;23.350;2022-12-18T02:57:47;96417.56;;;3.84;100.00
51083;BME280;37131;42.694;23.350;2022-12-18T03:03:14;96425.16;;;3.59;100.00
51083;BME280;37131;42.694;23.350;2022-12-18T03:05:47;96415.31;;;3.63;100.00
51083;BME280;37131;42.694;23.350;2022-12-18T03:08:15;96418.97;;;3.52;100.00
51083;BME280;37131;42.694;23.350;2022-12-18T03:10:45;96428.25;;;3.45;100.00
51083;BME280;37131;42.694;23.350;2022-12-18T03:13:14;96437.69;;;3.36;100.00
51083;BME280;37131;42.694;23.350;2022-12-18T03:15:48;96440.50;;;3.43;100.00
51083;BME280;37131;42.694;23.350;2022-12-18T03:18:16;96442.41;;;3.41;100.00
51083;BME280;37131;42.694;23.350;2022-12-18T03:20:44;96448.66;;;3.56;100.00
51083;BME280;37131;42.694;23.350;2022-12-18T03:23:13;96448.81;;;3.55;100.00
51083;BME280;37131;42.694;23.350;2022-12-18T03:25:41;96452.94;;;3.47;100.00
51083;BME280;37131;42.694;23.350;2022-12-18T03:28:08;96450.84;;;3.51;100.00
51083;BME280;37131;42.694;23.350;2022-12-18T03:30:35;96456.53;;;3.55;100.00
51083;BME280;37131;42.694;23.350;2022-12-18T03:33:05;96464.44;;;3.53;100.00
51083;BME280;37131;42.694;23.350;2022-12-18T03:35:34;96470.31;;;3.45;100.00
51083;BME280;37131;42.694;23.350;2022-12-18T03:38:00;96468.91;;;3.51;100.00
51083;BME280;37131;42.694;23.350;2022-12-18T03:40:38;96463.16;;;3.57;100.00
51083;BME280;37131;42.694;23.350;2022-12-18T03:43:10;96469.47;;;3.63;100.00
51083;BME280;37131;42.694;23.350;2022-12-18T03:45:37;96477.97;;;3.55;100.00
51083;BME280;37131;42.694;23.350;2022-12-18T03:55:27;96490.78;;;3.47;100.00
51083;BME280;37131;42.694;23.350;2022-12-18T03:57:56;96491.91;;;3.44;100.00
51083;BME280;37131;42.694;23.350;2022-12-18T04:00:22;96501.56;;;3.42;100.00
51083;BME280;37131;42.694;23.350;2022-12-18T04:02:48;96503.47;;;3.40;100.00
51083;BME280;37131;42.694;23.350;2022-12-18T04:05:16;96510.47;;;3.30;100.00
51083;BME280;37131;42.694;23.350;2022-12-18T04:07:42;96511.28;;;3.30;100.00
51083;BME280;37131;42.694;23.350;2022-12-18T04:10:09;96507.00;;;3.39;100.00
51083;BME280;37131;42.694;23.350;2022-12-18T04:12:36;96504.56;;;3.38;100.00
51083;BME280;37131;42.694;23.350;2022-12-18T04:15:02;96513.69;;;3.32;100.00
51083;BME280;37131;42.694;23.350;2022-12-18T04:17:27;96512.41;;;3.46;100.00
51083;BME280;37131;42.694;23.350;2022-12-18T04:19:52;96523.00;;;3.43;100.00
51083;BME280;37131;42.694;23.350;2022-12-18T04:22:18;96531.84;;;3.40;100.00
51083;BME280;37131;42.694;23.350;2022-12-18T04:24:43;96536.53;;;3.45;100.00
51083;BME280;37131;42.694;23.350;2022-12-18T04:27:08;96533.81;;;3.46;100.00
51083;BME280;37131;42.694;23.350;2022-12-18T04:29:33;96543.69;;;3.33;100.00
51083;BME280;37131;42.694;23.350;2022-12-18T04:31:59;96536.19;;;3.40;100.00
51083;BME280;37131;42.694;23.350;2022-12-18T04:34:24;96541.56;;;3.46;100.00
51083;BME280;37131;42.694;23.350;2022-12-18T04:36:49;96543.47;;;3.44;100.00
51083;BME280;37131;42.694;23.350;2022-12-18T04:39:15;96544.28;;;3.45;99.50
51083;BME280;37131;42.694;23.350;2022-12-18T04:41:40;96542.50;;;3.45;98.18
51083;BME280;37131;42.694;23.350;2022-12-18T04:44:06;96549.72;;;3.24;99.07
51083;BME280;37131;42.694;23.350;2022-12-18T04:46:31;96558.44;;;3.13;98.39
51083;BME280;37131;42.694;23.350;2022-12-18T04:48:56;96559.94;;;3.15;99.40
51083;BME280;37131;42.694;23.350;2022-12-18T04:51:22;96561.56;;;3.16;97.45
51083;BME280;37131;42.694;23.350;2022-12-18T04:53:47;96563.25;;;3.08;99.73
51083;BME280;37131;42.694;23.350;2022-12-18T04:56:13;96566.94;;;3.23;98.90
51083;BME280;37131;42.694;23.350;2022-12-18T04:58:39;96574.66;;;3.23;97.30
51083;BME280;37131;42.694;23.350;2022-12-18T05:01:05;96581.59;;;3.23;96.89
51083;BME280;37131;42.694;23.350;2022-12-18T05:03:30;96584.66;;;3.08;97.23
51083;BME280;37131;42.694;23.350;2022-12-18T05:05:55;96581.53;;;3.14;96.07
51083;BME280;37131;42.694;23.350;2022-12-18T05:08:21;96586.91;;;3.21;95.94
51083;BME280;37131;42.694;23.350;2022-12-18T05:10:46;96586.03;;;3.03;96.07
51083;BME280;37131;42.694;23.350;2022-12-18T05:13:11;96584.44;;;3.02;98.25
51083;BME280;37131;42.694;23.350;2022-12-18T05:15:37;96591.19;;;3.03;96.33
51083;BME280;37131;42.694;23.350;2022-12-18T05:18:02;96599.06;;;3.01;96.90
51083;BME280;37131;42.694;23.350;2022-12-18T05:20:28;96606.09;;;3.09;96.55
51083;BME280;37131;42.694;23.350;2022-12-18T05:22:53;96607.72;;;3.10;95.06
51083;BME280;37131;42.694;23.350;2022-12-18T05:25:19;96612.09;;;2.99;96.71
51083;BME280;37131;42.694;23.350;2022-12-18T05:27:45;96613.88;;;2.99;97.90
51083;BME280;37131;42.694;23.350;2022-12-18T05:30:11;96614.53;;;3.01;96.62
51083;BME280;37131;42.694;23.350;2022-12-18T05:32:36;96614.28;;;3.04;97.11
51083;BME280;37131;42.694;23.350;2022-12-18T05:35:01;96615.06;;;3.05;96.49
51083;BME280;37131;42.694;23.350;2022-12-18T05:37:27;96627.16;;;3.04;96.40
51083;BME280;37131;42.694;23.350;2022-12-18T05:39:52;96616.16;;;3.02;95.99
51083;BME280;37131;42.694;23.350;2022-12-18T05:42:17;96631.47;;;3.04;96.94
51083;BME280;37131;42.694;23.350;2022-12-18T05:44:43;96633.63;;;3.08;96.34
51083;BME280;37131;42.694;23.350;2022-12-18T05:47:08;96634.34;;;3.01;94.95
51083;BME280;37131;42.694;23.350;2022-12-18T05:49:33;96639.91;;;2.96;93.65
51083;BME280;37131;42.694;23.350;2022-12-18T05:51:59;96631.56;;;2.84;93.96
51083;BME280;37131;42.694;23.350;2022-12-18T05:54:26;96639.44;;;2.83;94.13
51083;BME280;37131;42.694;23.350;2022-12-18T05:56:51;96637.50;;;2.85;94.50
51083;BME280;37131;42.694;23.350;2022-12-18T05:59:17;96640.09;;;2.85;93.89
51083;BME280;37131;42.694;23.350;2022-12-18T06:01:42;96653.69;;;2.77;93.46
51083;BME280;37131;42.694;23.350;2022-12-18T06:04:08;96655.44;;;2.76;94.37
51083;BME280;37131;42.694;23.350;2022-12-18T06:06:33;96654.47;;;2.87;93.29
51083;BME280;37131;42.694;23.350;2022-12-18T06:08:58;96653.03;;;2.75;93.92
51083;BME280;37131;42.694;23.350;2022-12-18T06:11:25;96653.31;;;2.72;94.39
51083;BME280;37131;42.694;23.350;2022-12-18T06:13:51;96648.53;;;2.77;94.08
51083;BME280;37131;42.694;23.350;2022-12-18T06:16:17;96652.09;;;2.66;95.71
51083;BME280;37131;42.694;23.350;2022-12-18T06:18:42;96664.41;;;2.72;94.85
51083;BME280;37131;42.694;23.350;2022-12-18T06:21:07;96671.56;;;2.78;95.75
51083;BME280;37131;42.694;23.350;2022-12-18T06:23:33;96670.56;;;2.89;94.30
51083;BME280;37131;42.694;23.350;2022-12-18T06:25:58;96681.59;;;2.81;92.61
51083;BME280;37131;42.694;23.350;2022-12-18T06:28:23;96681.88;;;2.78;95.51
51083;BME280;37131;42.694;23.350;2022-12-18T06:30:48;96676.16;;;2.85;92.91
51083;BME280;37131;42.694;23.350;2022-12-18T06:33:14;96687.72;;;2.80;92.75
51083;BME280;37131;42.694;23.350;2022-12-18T06:35:40;96687.31;;;2.75;94.59
51083;BME280;37131;42.694;23.350;2022-12-18T06:38:05;96690.69;;;2.76;93.86
51083;BME280;37131;42.694;23.350;2022-12-18T06:40:31;96692.06;;;2.70;94.07
51083;BME280;37131;42.694;23.350;2022-12-18T06:42:56;96691.75;;;2.83;93.23
51083;BME280;37131;42.694;23.350;2022-12-18T06:45:21;96708.13;;;2.92;93.62
51083;BME280;37131;42.694;23.350;2022-12-18T06:47:46;96700.97;;;2.86;92.06
51083;BME280;37131;42.694;23.350;2022-12-18T06:50:12;96697.31;;;2.88;91.52
51083;BME280;37131;42.694;23.350;2022-12-18T06:52:37;96711.66;;;2.91;92.29
51083;BME280;37131;42.694;23.350;2022-12-18T06:55:04;96708.13;;;3.02;90.78
51083;BME280;37131;42.694;23.350;2022-12-18T06:57:29;96713.56;;;2.89;90.46
51083;BME280;37131;42.694;23.350;2022-12-18T06:59:54;96711.78;;;2.89;88.96
51083;BME280;37131;42.694;23.350;2022-12-18T07:02:20;96713.00;;;2.95;87.58
51083;BME280;37131;42.694;23.350;2022-12-18T07:04:45;96719.81;;;2.86;89.62
51083;BME280;37131;42.694;23.350;2022-12-18T07:07:10;96722.66;;;2.83;87.64
51083;BME280;37131;42.694;23.350;2022-12-18T07:09:35;96730.53;;;2.91;86.74
51083;BME280;37131;42.694;23.350;2022-12-18T07:12:01;96725.31;;;3.01;86.57
51083;BME280;37131;42.694;23.350;2022-12-18T07:14:26;96726.31;;;3.00;87.17
51083;BME280;37131;42.694;23.350;2022-12-18T07:16:51;96728.31;;;3.06;86.15
51083;BME280;37131;42.694;23.350;2022-12-18T07:19:17;96735.75;;;3.09;86.34
51083;BME280;37131;42.694;23.350;2022-12-18T07:21:42;96731.53;;;3.08;87.27
51083;BME280;37131;42.694;23.350;2022-12-18T07:24:07;96730.75;;;3.08;87.59
51083;BME280;37131;42.694;23.350;2022-12-18T07:26:32;96733.88;;;3.02;87.74
51083;BME280;37131;42.694;23.350;2022-12-18T07:28:58;96736.09;;;2.87;89.12
51083;BME280;37131;42.694;23.350;2022-12-18T07:31:23;96744.25;;;2.82;89.07
51083;BME280;37131;42.694;23.350;2022-12-18T07:33:49;96739.22;;;2.71;89.95
51083;BME280;37131;42.694;23.350;2022-12-18T07:36:15;96733.94;;;2.82;90.85
51083;BME280;37131;42.694;23.350;2022-12-18T07:38:40;96744.63;;;2.77;90.64
51083;BME280;37131;42.694;23.350;2022-12-18T07:41:07;96742.88;;;2.78;90.26
51083;BME280;37131;42.694;23.350;2022-12-18T07:43:33;96749.78;;;2.87;89.95
51083;BME280;37131;42.694;23.350;2022-12-18T07:45:58;96750.56;;;2.88;90.60
51083;BME280;37131;42.694;23.350;2022-12-18T07:48:24;96761.72;;;2.88;90.00
51083;BME280;37131;42.694;23.350;2022-12-18T07:50:49;96753.84;;;2.80;90.36
51083;BME280;37131;42.694;23.350;2022-12-18T07:53:14;96755.72;;;2.88;90.37
51083;BME280;37131;42.694;23.350;2022-12-18T07:55:40;96765.09;;;2.89;91.53
51083;BME280;37131;42.694;23.350;2022-12-18T07:58:06;96758.59;;;2.85;91.86
51083;BME280;37131;42.694;23.350;2022-12-18T08:00:32;96763.72;;;2.94;92.03
51083;BME280;37131;42.694;23.350;2022-12-18T08:02:57;96764.44;;;2.87;93.17
51083;BME280;37131;42.694;23.350;2022-12-18T08:05:23;96767.38;;;2.92;92.05
51083;BME280;37131;42.694;23.350;2022-12-18T08:07:48;96778.91;;;2.97;92.21
51083;BME280;37131;42.694;23.350;2022-12-18T08:10:13;96785.69;;;2.89;91.49
51083;BME280;37131;42.694;23.350;2022-12-18T08:12:39;96776.59;;;3.04;91.26
51083;BME280;37131;42.694;23.350;2022-12-18T08:15:04;96788.38;;;3.07;90.99
51083;BME280;37131;42.694;23.350;2022-12-18T08:17:30;96789.22;;;2.97;92.51
51083;BME280;37131;42.694;23.350;2022-12-18T08:19:55;96806.44;;;2.97;90.51
51083;BME280;37131;42.694;23.350;2022-12-18T08:22:20;96812.97;;;2.91;90.61
51083;BME280;37131;42.694;23.350;2022-12-18T08:24:45;96812.16;;;2.81;91.08
51083;BME280;37131;42.694;23.350;2022-12-18T08:27:11;96809.16;;;2.76;91.94
51083;BME280;37131;42.694;23.350;2022-12-18T08:29:36;96807.13;;;2.70;92.53
51083;BME280;37131;42.694;23.350;2022-12-18T08:32:01;96806.19;;;2.90;91.76
51083;BME280;37131;42.694;23.350;2022-12-18T08:34:26;96816.91;;;2.86;90.50
51083;BME280;37131;42.694;23.350;2022-12-18T08:36:52;96817.72;;;2.76;89.82
51083;BME280;37131;42.694;23.350;2022-12-18T08:39:17;96811.22;;;2.82;90.39
51083;BME280;37131;42.694;23.350;2022-12-18T08:41:43;96810.66;;;2.88;89.82
51083;BME280;37131;42.694;23.350;2022-12-18T08:44:28;96820.13;;;2.97;88.68
51083;BME280;37131;42.694;23.350;2022-12-18T08:47:03;96810.09;;;2.94;87.30
51083;BME280;37131;42.694;23.350;2022-12-18T08:49:28;96823.53;;;3.08;87.58
51083;BME280;37131;42.694;23.350;2022-12-18T08:51:54;96829.66;;;2.97;86.74
51083;BME280;37131;42.694;23.350;2022-12-18T08:54:20;96833.53;;;3.01;86.85
51083;BME280;37131;42.694;23.350;2022-12-18T08:56:45;96824.44;;;3.16;86.15
51083;BME280;37131;42.694;23.350;2022-12-18T08:59:10;96824.19;;;3.10;88.19
51083;BME280;37131;42.694;23.350;2022-12-18T09:01:36;96823.66;;;3.06;85.38
51083;BME280;37131;42.694;23.350;2022-12-18T09:04:01;96817.25;;;3.20;85.47
51083;BME280;37131;42.694;23.350;2022-12-18T09:06:26;96813.56;;;3.32;84.58
51083;BME280;37131;42.694;23.350;2022-12-18T09:08:52;96823.34;;;3.29;83.77
51083;BME280;37131;42.694;23.350;2022-12-18T09:11:22;96827.03;;;3.26;83.08
51083;BME280;37131;42.694;23.350;2022-12-18T09:13:47;96819.28;;;3.26;83.00
51083;BME280;37131;42.694;23.350;2022-12-18T09:16:13;96818.09;;;3.11;82.61
51083;BME280;37131;42.694;23.350;2022-12-18T09:18:38;96818.63;;;3.14;82.94
51083;BME280;37131;42.694;23.350;2022-12-18T09:21:07;96819.84;;;3.10;84.88
51083;BME280;37131;42.694;23.350;2022-12-18T09:23:32;96816.31;;;3.21;84.39
51083;BME280;37131;42.694;23.350;2022-12-18T09:26:00;96821.31;;;3.32;82.13
51083;BME280;37131;42.694;23.350;2022-12-18T09:28:26;96815.97;;;3.44;82.97
51083;BME280;37131;42.694;23.350;2022-12-18T09:30:51;96819.59;;;3.61;81.65
51083;BME280;37131;42.694;23.350;2022-12-18T09:33:16;96812.06;;;3.77;79.68
51083;BME280;37131;42.694;23.350;2022-12-18T09:35:42;96815.59;;;3.76;79.00
51083;BME280;37131;42.694;23.350;2022-12-18T09:38:08;96821.03;;;3.73;79.73
51083;BME280;37131;42.694;23.350;2022-12-18T09:40:39;96820.78;;;3.66;78.51
51083;BME280;37131;42.694;23.350;2022-12-18T09:43:07;96826.53;;;3.50;80.25
51083;BME280;37131;42.694;23.350;2022-12-18T09:45:40;96824.50;;;3.54;78.85
51083;BME280;37131;42.694;23.350;2022-12-18T09:48:06;96818.25;;;3.57;78.82
51083;BME280;37131;42.694;23.350;2022-12-18T09:50:36;96819.53;;;3.43;80.02
51083;BME280;37131;42.694;23.350;2022-12-18T09:53:09;96816.75;;;3.54;80.76
51083;BME280;37131;42.694;23.350;2022-12-18T09:55:38;96826.47;;;3.70;78.64
51083;BME280;37131;42.694;23.350;2022-12-18T10:01:15;96817.66;;;3.73;77.99
51083;BME280;37131;42.694;23.350;2022-12-18T10:03:43;96814.13;;;3.74;76.86
51083;BME280;37131;42.694;23.350;2022-12-18T10:06:13;96819.66;;;3.79;77.75
51083;BME280;37131;42.694;23.350;2022-12-18T10:11:16;96822.88;;;3.81;78.46
51083;BME280;37131;42.694;23.350;2022-12-18T10:13:47;96814.75;;;3.85;77.10
51083;BME280;37131;42.694;23.350;2022-12-18T10:19:14;96808.44;;;3.98;76.29
51083;BME280;37131;42.694;23.350;2022-12-18T10:26:40;96809.94;;;4.18;75.08
51083;BME280;37131;42.694;23.350;2022-12-18T10:29:10;96824.06;;;3.96;76.20
51083;BME280;37131;42.694;23.350;2022-12-18T10:31:37;96818.16;;;4.04;75.86
51083;BME280;37131;42.694;23.350;2022-12-18T10:34:02;96812.34;;;4.02;75.17
51083;BME280;37131;42.694;23.350;2022-12-18T10:36:27;96811.38;;;4.03;75.72
51083;BME280;37131;42.694;23.350;2022-12-18T10:38:53;96816.50;;;4.13;75.96
51083;BME280;37131;42.694;23.350;2022-12-18T10:43:46;96811.13;;;4.06;74.90
51083;BME280;37131;42.694;23.350;2022-12-18T10:51:04;96812.56;;;4.36;75.75
51083;BME280;37131;42.694;23.350;2022-12-18T10:53:31;96807.47;;;4.45;74.57
51083;BME280;37131;42.694;23.350;2022-12-18T10:55:58;96808.63;;;4.32;74.32
51083;BME280;37131;42.694;23.350;2022-12-18T11:01:06;96802.50;;;4.33;75.80
51083;BME280;37131;42.694;23.350;2022-12-18T11:03:32;96808.84;;;4.21;75.04
51083;BME280;37131;42.694;23.350;2022-12-18T11:06:05;96812.34;;;4.30;77.60
51083;BME280;37131;42.694;23.350;2022-12-18T11:08:30;96807.72;;;4.24;75.61
51083;BME280;37131;42.694;23.350;2022-12-18T11:10:56;96811.38;;;4.03;76.10
51083;BME280;37131;42.694;23.350;2022-12-18T11:13:22;96805.84;;;3.98;76.93
51083;BME280;37131;42.694;23.350;2022-12-18T11:15:48;96804.25;;;4.15;76.20
51083;BME280;37131;42.694;23.350;2022-12-18T11:18:18;96806.56;;;4.18;77.11
51083;BME280;37131;42.694;23.350;2022-12-18T11:20:55;96804.53;;;4.12;75.27
51083;BME280;37131;42.694;23.350;2022-12-18T11:23:22;96813.34;;;4.19;76.17
51083;BME280;37131;42.694;23.350;2022-12-18T11:26:06;96821.06;;;4.19;74.39
51083;BME280;37131;42.694;23.350;2022-12-18T11:28:47;96816.94;;;4.08;74.37
51083;BME280;37131;42.694;23.350;2022-12-18T11:31:20;96815.63;;;4.22;74.85
51083;BME280;37131;42.694;23.350;2022-12-18T11:34:31;96812.25;;;4.21;76.08
51083;BME280;37131;42.694;23.350;2022-12-18T11:36:36;96820.94;;;4.20;75.92
51083;BME280;37131;42.694;23.350;2022-12-18T11:39:07;96811.72;;;4.18;74.81
51083;BME280;37131;42.694;23.350;2022-12-18T11:41:38;96807.66;;;4.15;74.49
51083;BME280;37131;42.694;23.350;2022-12-18T11:44:26;96821.63;;;4.22;76.34
51083;BME280;37131;42.694;23.350;2022-12-18T11:46:55;96820.16;;;4.38;75.40
51083;BME280;37131;42.694;23.350;2022-12-18T11:49:24;96817.91;;;4.25;74.00
51083;BME280;37131;42.694;23.350;2022-12-18T11:51:53;96815.75;;;4.20;74.20
51083;BME280;37131;42.694;23.350;2022-12-18T11:54:21;96821.63;;;4.22;74.40
51083;BME280;37131;42.694;23.350;2022-12-18T11:56:53;96816.16;;;4.26;74.06
51083;BME280;37131;42.694;23.350;2022-12-18T11:59:37;96809.63;;;4.03;75.42
51083;BME280;37131;42.694;23.350;2022-12-18T12:04:39;96808.13;;;4.29;73.80
51083;BME280;37131;42.694;23.350;2022-12-18T12:20:10;96810.38;;;4.14;75.58
51083;BME280;37131;42.694;23.350;2022-12-18T12:30:00;96816.44;;;4.22;76.78
51083;BME280;37131;42.694;23.350;2022-12-18T12:35:14;96819.94;;;4.49;73.64
51083;BME280;37131;42.694;23.350;2022-12-18T12:40:24;96823.06;;;4.25;73.94
51083;BME280;37131;42.694;23.350;2022-12-18T12:42:52;96824.81;;;4.34;75.28
51083;BME280;37131;42.694;23.350;2022-12-18T12:48:15;96815.16;;;4.09;75.94
51083;BME280;37131;42.694;23.350;2022-12-18T12:50:42;96812.84;;;4.33;74.03
51083;BME280;37131;42.694;23.350;2022-12-18T12:53:07;96819.34;;;4.37;73.59
51083;BME280;37131;42.694;23.350;2022-12-18T12:55:34;96824.28;;;4.31;73.84
51083;BME280;37131;42.694;23.350;2022-12-18T12:58:17;96825.47;;;4.36;74.41
51083;BME280;37131;42.694;23.350;2022-12-18T13:05:54;96836.53;;;4.29;75.53
51083;BME280;37131;42.694;23.350;2022-12-18T13:08:23;96839.44;;;4.16;74.33
51083;BME280;37131;42.694;23.350;2022-12-18T13:10:48;96844.09;;;4.12;73.68
51083;BME280;37131;42.694;23.350;2022-12-18T13:13:14;96844.91;;;4.31;73.43
51083;BME280;37131;42.694;23.350;2022-12-18T13:15:44;96844.41;;;4.27;73.78
51083;BME280;37131;42.694;23.350;2022-12-18T13:25:54;96859.16;;;4.17;75.28
51083;BME280;37131;42.694;23.350;2022-12-18T13:31:03;96855.94;;;4.33;74.98
51083;BME280;37131;42.694;23.350;2022-12-18T13:36:02;96859.38;;;4.24;75.12
51083;BME280;37131;42.694;23.350;2022-12-18T13:41:02;96865.09;;;4.17;74.20
51083;BME280;37131;42.694;23.350;2022-12-18T13:43:32;96864.28;;;4.27;73.97
51083;BME280;37131;42.694;23.350;2022-12-18T13:46:05;96868.13;;;4.13;73.77
51083;BME280;37131;42.694;23.350;2022-12-18T13:48:41;96875.66;;;4.06;75.19
51083;BME280;37131;42.694;23.350;2022-12-18T13:51:15;96879.59;;;4.00;75.45
51083;BME280;37131;42.694;23.350;2022-12-18T13:53:43;96891.13;;;4.06;76.07
51083;BME280;37131;42.694;23.350;2022-12-18T13:56:09;96888.78;;;4.13;74.31
51083;BME280;37131;42.694;23.350;2022-12-18T13:58:39;96892.22;;;4.03;74.88
51083;BME280;37131;42.694;23.350;2022-12-18T14:01:10;96893.16;;;4.02;75.46
51083;BME280;37131;42.694;23.350;2022-12-18T14:03:40;96893.72;;;4.06;74.69
51083;BME280;37131;42.694;23.350;2022-12-18T14:06:06;96894.13;;;4.01;74.46
51083;BME280;37131;42.694;23.350;2022-12-18T14:08:34;96893.63;;;3.88;73.95
51083;BME280;37131;42.694;23.350;2022-12-18T14:11:00;96900.00;;;3.94;74.46
51083;BME280;37131;42.694;23.350;2022-12-18T14:13:27;96896.44;;;4.04;74.79
51083;BME280;37131;42.694;23.350;2022-12-18T14:15:54;96900.53;;;3.97;75.65
51083;BME280;37131;42.694;23.350;2022-12-18T14:18:29;96895.41;;;3.88;77.71
51083;BME280;37131;42.694;23.350;2022-12-18T14:20:57;96904.78;;;3.89;75.45
51083;BME280;37131;42.694;23.350;2022-12-18T14:25:51;96909.94;;;3.79;74.87
51083;BME280;37131;42.694;23.350;2022-12-18T14:28:17;96907.28;;;3.71;75.19
51083;BME280;37131;42.694;23.350;2022-12-18T14:30:43;96902.47;;;3.85;75.68
51083;BME280;37131;42.694;23.350;2022-12-18T14:33:09;96916.69;;;3.90;74.11
51083;BME280;37131;42.694;23.350;2022-12-18T14:35:39;96915.47;;;3.94;73.84
51083;BME280;37131;42.694;23.350;2022-12-18T14:40:51;96919.44;;;3.88;73.18
51083;BME280;37131;42.694;23.350;2022-12-18T14:43:17;96914.94;;;3.90;72.48
51083;BME280;37131;42.694;23.350;2022-12-18T14:45:43;96908.81;;;3.91;71.53
51083;BME280;37131;42.694;23.350;2022-12-18T14:53:27;96912.09;;;3.83;72.07
51083;BME280;37131;42.694;23.350;2022-12-18T14:55:54;96913.09;;;3.82;70.88
51083;BME280;37131;42.694;23.350;2022-12-18T14:58:20;96913.38;;;3.69;70.96